sensor_id;sensor_type;location;lat;lon;timestamp;pressure;altitude;pressure_sealevel;temperature;humidity
10646;BME280;5371;49.782;9.932;2023-01-04T00:02:20;100867.53;;;4.05;100.00
10646;BME280;5371;49.782;9.932;2023-01-04T00:04:47;100872.16;;;3.81;100.00
10646;BME280;5371;49.782;9.932;2023-01-04T00:07:15;100865.28;;;3.78;100.00
10646;BME280;5371;49.782;9.932;2023-01-04T00:09:42;100856.03;;;3.60;100.00
10646;BME280;5371;49.782;9.932;2023-01-04T00:12:09;100855.53;;;4.00;100.00
10646;BME280;5371;49.782;9.932;2023-01-04T00:14:36;100848.13;;;3.72;100.00
10646;BME280;5371;49.782;9.932;2023-01-04T00:17:03;100838.44;;;3.88;100.00
10646;BME280;5371;49.782;9.932;2023-01-04T00:19:30;100840.16;;;3.89;100.00
10646;BME280;5371;49.782;9.932;2023-01-04T00:21:57;100839.31;;;3.87;100.00
10646;BME280;5371;49.782;9.932;2023-01-04T00:24:26;100828.25;;;3.76;100.00
10646;BME280;5371;49.782;9.932;2023-01-04T00:26:53;100832.44;;;3.83;100.00
10646;BME280;5371;49.782;9.932;2023-01-04T00:29:21;100828.97;;;3.87;100.00
10646;BME280;5371;49.782;9.932;2023-01-04T00:31:47;100823.94;;;3.75;100.00
10646;BME280;5371;49.782;9.932;2023-01-04T00:34:16;100819.06;;;3.54;100.00
10646;BME280;5371;49.782;9.932;2023-01-04T00:36:44;100818.88;;;3.67;100.00
10646;BME280;5371;49.782;9.932;2023-01-04T00:39:13;100813.66;;;3.70;100.00
10646;BME280;5371;49.782;9.932;2023-01-04T00:41:44;100813.66;;;3.72;100.00
10646;BME280;5371;49.782;9.932;2023-01-04T00:44:12;100811.34;;;3.51;100.00
10646;BME280;5371;49.782;9.932;2023-01-04T00:46:39;100811.47;;;3.37;100.00
10646;BME280;5371;49.782;9.932;2023-01-04T00:49:08;100806.91;;;3.60;100.00
10646;BME280;5371;49.782;9.932;2023-01-04T00:51:37;100800.53;;;3.15;100.00
10646;BME280;5371;49.782;9.932;2023-01-04T00:54:06;100805.44;;;3.39;100.00
10646;BME280;5371;49.782;9.932;2023-01-04T00:56:34;100808.31;;;3.14;100.00
10646;BME280;5371;49.782;9.932;2023-01-04T00:59:03;100802.56;;;2.86;100.00
10646;BME280;5371;49.782;9.932;2023-01-04T01:01:31;100803.09;;;3.18;100.00
10646;BME280;5371;49.782;9.932;2023-01-04T01:04:00;100802.38;;;3.03;100.00
10646;BME280;5371;49.782;9.932;2023-01-04T01:06:29;100811.19;;;2.85;100.00
10646;BME280;5371;49.782;9.932;2023-01-04T01:08:57;100814.63;;;2.84;100.00
10646;BME280;5371;49.782;9.932;2023-01-04T01:11:24;100820.28;;;3.19;100.00
10646;BME280;5371;49.782;9.932;2023-01-04T01:13:51;100819.00;;;2.79;100.00
10646;BME280;5371;49.782;9.932;2023-01-04T01:16:21;100815.47;;;2.87;100.00
10646;BME280;5371;49.782;9.932;2023-01-04T01:18:49;100819.25;;;2.48;100.00
10646;BME280;5371;49.782;9.932;2023-01-04T01:21:17;100815.53;;;2.81;100.00
10646;BME280;5371;49.782;9.932;2023-01-04T01:23:45;100812.88;;;2.87;100.00
10646;BME280;5371;49.782;9.932;2023-01-04T01:26:14;100803.47;;;2.82;100.00
10646;BME280;5371;49.782;9.932;2023-01-04T01:28:41;100804.34;;;2.79;100.00
10646;BME280;5371;49.782;9.932;2023-01-04T01:31:10;100800.22;;;2.63;100.00
10646;BME280;5371;49.782;9.932;2023-01-04T01:33:40;100807.78;;;2.80;100.00
10646;BME280;5371;49.782;9.932;2023-01-04T01:36:08;100807.16;;;2.55;100.00
10646;BME280;5371;49.782;9.932;2023-01-04T01:38:36;100801.22;;;2.42;100.00
10646;BME280;5371;49.782;9.932;2023-01-04T01:41:04;100802.81;;;2.57;100.00
10646;BME280;5371;49.782;9.932;2023-01-04T01:43:49;100803.66;;;2.60;100.00
10646;BME280;5371;49.782;9.932;2023-01-04T01:46:20;100798.38;;;2.74;100.00
10646;BME280;5371;49.782;9.932;2023-01-04T01:48:48;100805.22;;;2.77;100.00
10646;BME280;5371;49.782;9.932;2023-01-04T01:51:18;100801.97;;;2.56;100.00
10646;BME280;5371;49.782;9.932;2023-01-04T01:53:47;100816.03;;;2.17;100.00
10646;BME280;5371;49.782;9.932;2023-01-04T01:56:16;100807.25;;;2.46;100.00
10646;BME280;5371;49.782;9.932;2023-01-04T01:58:50;100799.53;;;2.41;100.00
10646;BME280;5371;49.782;9.932;2023-01-04T02:01:19;100801.19;;;2.48;100.00
10646;BME280;5371;49.782;9.932;2023-01-04T02:03:47;100802.81;;;2.58;100.00
10646;BME280;5371;49.782;9.932;2023-01-04T02:06:18;100799.53;;;2.40;100.00
10646;BME280;5371;49.782;9.932;2023-01-04T02:08:47;100792.50;;;2.55;100.00
10646;BME280;5371;49.782;9.932;2023-01-04T02:11:15;100783.97;;;2.50;100.00
10646;BME280;5371;49.782;9.932;2023-01-04T02:13:42;100773.41;;;2.75;100.00
10646;BME280;5371;49.782;9.932;2023-01-04T02:16:39;100775.00;;;2.88;100.00
10646;BME280;5371;49.782;9.932;2023-01-04T02:19:26;100770.69;;;2.90;100.00
10646;BME280;5371;49.782;9.932;2023-01-04T02:25:15;100759.44;;;2.94;100.00
10646;BME280;5371;49.782;9.932;2023-01-04T02:27:48;100766.41;;;2.86;100.00
10646;BME280;5371;49.782;9.932;2023-01-04T02:33:27;100743.63;;;2.39;100.00
10646;BME280;5371;49.782;9.932;2023-01-04T02:36:03;100746.38;;;2.19;100.00
10646;BME280;5371;49.782;9.932;2023-01-04T02:38:58;100736.66;;;2.50;100.00
10646;BME280;5371;49.782;9.932;2023-01-04T02:41:31;100733.34;;;2.36;100.00
10646;BME280;5371;49.782;9.932;2023-01-04T02:44:04;100734.94;;;2.49;100.00
10646;BME280;5371;49.782;9.932;2023-01-04T02:46:58;100730.88;;;2.22;100.00
10646;BME280;5371;49.782;9.932;2023-01-04T02:49:28;100729.84;;;2.41;100.00
10646;BME280;5371;49.782;9.932;2023-01-04T02:52:13;100727.19;;;2.50;100.00
10646;BME280;5371;49.782;9.932;2023-01-04T02:54:41;100726.25;;;2.56;100.00
10646;BME280;5371;49.782;9.932;2023-01-04T02:57:28;100721.09;;;2.56;100.00
10646;BME280;5371;49.782;9.932;2023-01-04T03:00:11;100717.66;;;2.57;100.00
10646;BME280;5371;49.782;9.932;2023-01-04T03:02:55;100706.63;;;2.40;100.00
10646;BME280;5371;49.782;9.932;2023-01-04T03:05:54;100707.56;;;2.34;100.00
10646;BME280;5371;49.782;9.932;2023-01-04T03:08:45;100709.97;;;2.49;100.00
10646;BME280;5371;49.782;9.932;2023-01-04T03:11:17;100701.69;;;2.17;100.00
10646;BME280;5371;49.782;9.932;2023-01-04T03:14:07;100694.97;;;1.96;100.00
10646;BME280;5371;49.782;9.932;2023-01-04T03:16:38;100691.69;;;1.77;100.00
10646;BME280;5371;49.782;9.932;2023-01-04T03:19:06;100687.41;;;1.75;100.00
10646;BME280;5371;49.782;9.932;2023-01-04T03:21:41;100688.72;;;2.26;100.00
10646;BME280;5371;49.782;9.932;2023-01-04T03:24:09;100684.19;;;2.49;100.00
10646;BME280;5371;49.782;9.932;2023-01-04T03:27:00;100677.50;;;2.29;100.00
10646;BME280;5371;49.782;9.932;2023-01-04T03:29:50;100670.78;;;2.11;100.00
10646;BME280;5371;49.782;9.932;2023-01-04T03:32:43;100664.50;;;2.38;100.00
10646;BME280;5371;49.782;9.932;2023-01-04T03:35:31;100669.81;;;2.21;100.00
10646;BME280;5371;49.782;9.932;2023-01-04T03:38:09;100673.06;;;2.44;100.00
10646;BME280;5371;49.782;9.932;2023-01-04T03:41:02;100668.69;;;2.49;100.00
10646;BME280;5371;49.782;9.932;2023-01-04T03:43:53;100663.59;;;2.43;100.00
10646;BME280;5371;49.782;9.932;2023-01-04T03:46:44;100665.97;;;1.71;100.00
10646;BME280;5371;49.782;9.932;2023-01-04T03:49:38;100659.16;;;1.61;100.00
10646;BME280;5371;49.782;9.932;2023-01-04T03:52:08;100654.91;;;1.54;100.00
10646;BME280;5371;49.782;9.932;2023-01-04T03:54:39;100650.28;;;1.99;100.00
10646;BME280;5371;49.782;9.932;2023-01-04T03:57:08;100648.84;;;1.61;100.00
10646;BME280;5371;49.782;9.932;2023-01-04T03:59:38;100639.34;;;1.66;100.00
10646;BME280;5371;49.782;9.932;2023-01-04T04:02:09;100636.47;;;2.03;100.00
10646;BME280;5371;49.782;9.932;2023-01-04T04:04:38;100633.81;;;2.12;100.00
10646;BME280;5371;49.782;9.932;2023-01-04T04:07:23;100631.06;;;2.29;100.00
10646;BME280;5371;49.782;9.932;2023-01-04T04:10:09;100626.53;;;2.50;100.00
10646;BME280;5371;49.782;9.932;2023-01-04T04:12:35;100624.75;;;2.55;100.00
10646;BME280;5371;49.782;9.932;2023-01-04T04:15:03;100634.19;;;2.59;100.00
10646;BME280;5371;49.782;9.932;2023-01-04T04:17:30;100622.00;;;2.71;100.00
10646;BME280;5371;49.782;9.932;2023-01-04T04:19:57;100628.03;;;2.71;100.00
10646;BME280;5371;49.782;9.932;2023-01-04T04:22:24;100620.94;;;2.87;100.00
10646;BME280;5371;49.782;9.932;2023-01-04T04:24:52;100614.81;;;2.95;100.00
10646;BME280;5371;49.782;9.932;2023-01-04T04:27:20;100618.03;;;3.11;100.00
10646;BME280;5371;49.782;9.932;2023-01-04T04:29:47;100618.81;;;3.18;100.00
10646;BME280;5371;49.782;9.932;2023-01-04T04:32:14;100617.13;;;3.15;100.00
10646;BME280;5371;49.782;9.932;2023-01-04T04:34:41;100603.25;;;3.21;100.00
10646;BME280;5371;49.782;9.932;2023-01-04T04:37:08;100591.06;;;3.29;100.00
10646;BME280;5371;49.782;9.932;2023-01-04T04:39:35;100585.81;;;3.36;100.00
10646;BME280;5371;49.782;9.932;2023-01-04T04:42:02;100584.84;;;3.44;100.00
10646;BME280;5371;49.782;9.932;2023-01-04T04:44:29;100581.28;;;3.51;100.00
10646;BME280;5371;49.782;9.932;2023-01-04T04:46:56;100585.56;;;3.52;100.00
10646;BME280;5371;49.782;9.932;2023-01-04T04:49:23;100597.50;;;3.60;100.00
10646;BME280;5371;49.782;9.932;2023-01-04T04:51:50;100587.03;;;3.68;100.00
10646;BME280;5371;49.782;9.932;2023-01-04T04:54:18;100582.59;;;3.74;100.00
10646;BME280;5371;49.782;9.932;2023-01-04T04:56:46;100581.66;;;3.80;100.00
10646;BME280;5371;49.782;9.932;2023-01-04T04:59:13;100588.44;;;3.86;100.00
10646;BME280;5371;49.782;9.932;2023-01-04T05:01:42;100583.06;;;3.99;100.00
10646;BME280;5371;49.782;9.932;2023-01-04T05:04:09;100576.16;;;3.98;100.00
10646;BME280;5371;49.782;9.932;2023-01-04T05:06:41;100578.75;;;4.00;100.00
10646;BME280;5371;49.782;9.932;2023-01-04T05:09:09;100580.19;;;4.14;100.00
10646;BME280;5371;49.782;9.932;2023-01-04T05:11:36;100578.34;;;4.20;100.00
10646;BME280;5371;49.782;9.932;2023-01-04T05:14:21;100573.84;;;4.29;100.00
10646;BME280;5371;49.782;9.932;2023-01-04T05:16:49;100567.75;;;4.33;100.00
10646;BME280;5371;49.782;9.932;2023-01-04T05:19:16;100567.78;;;4.32;100.00
10646;BME280;5371;49.782;9.932;2023-01-04T05:21:43;100559.97;;;4.35;100.00
10646;BME280;5371;49.782;9.932;2023-01-04T05:24:11;100561.53;;;4.42;100.00
10646;BME280;5371;49.782;9.932;2023-01-04T05:26:38;100561.50;;;4.43;100.00
10646;BME280;5371;49.782;9.932;2023-01-04T05:29:05;100562.19;;;4.53;100.00
10646;BME280;5371;49.782;9.932;2023-01-04T05:31:53;100550.19;;;4.49;100.00
10646;BME280;5371;49.782;9.932;2023-01-04T05:34:19;100559.63;;;4.51;100.00
10646;BME280;5371;49.782;9.932;2023-01-04T05:36:46;100556.13;;;4.54;100.00
10646;BME280;5371;49.782;9.932;2023-01-04T05:39:13;100546.47;;;4.62;100.00
10646;BME280;5371;49.782;9.932;2023-01-04T05:41:40;100551.50;;;4.68;100.00
10646;BME280;5371;49.782;9.932;2023-01-04T05:44:25;100549.78;;;4.67;100.00
10646;BME280;5371;49.782;9.932;2023-01-04T05:46:55;100537.00;;;4.60;100.00
10646;BME280;5371;49.782;9.932;2023-01-04T05:49:22;100551.50;;;4.68;100.00
10646;BME280;5371;49.782;9.932;2023-01-04T05:51:49;100546.97;;;4.79;100.00
10646;BME280;5371;49.782;9.932;2023-01-04T05:54:16;100551.09;;;4.88;100.00
10646;BME280;5371;49.782;9.932;2023-01-04T05:56:43;100553.03;;;4.77;100.00
10646;BME280;5371;49.782;9.932;2023-01-04T05:59:10;100545.44;;;4.69;100.00
10646;BME280;5371;49.782;9.932;2023-01-04T06:01:37;100542.41;;;4.91;100.00
10646;BME280;5371;49.782;9.932;2023-01-04T06:04:05;100536.94;;;5.03;100.00
10646;BME280;5371;49.782;9.932;2023-01-04T06:06:32;100546.19;;;4.74;100.00
10646;BME280;5371;49.782;9.932;2023-01-04T06:08:59;100541.34;;;4.99;100.00
10646;BME280;5371;49.782;9.932;2023-01-04T06:11:26;100536.81;;;4.69;100.00
10646;BME280;5371;49.782;9.932;2023-01-04T06:13:52;100524.09;;;4.98;100.00
10646;BME280;5371;49.782;9.932;2023-01-04T06:16:19;100523.25;;;4.98;100.00
10646;BME280;5371;49.782;9.932;2023-01-04T06:18:46;100514.44;;;5.05;100.00
10646;BME280;5371;49.782;9.932;2023-01-04T06:21:15;100516.09;;;5.09;100.00
10646;BME280;5371;49.782;9.932;2023-01-04T06:23:42;100507.75;;;4.95;100.00
10646;BME280;5371;49.782;9.932;2023-01-04T06:26:09;100500.88;;;4.94;100.00
10646;BME280;5371;49.782;9.932;2023-01-04T06:28:36;100494.88;;;4.92;100.00
10646;BME280;5371;49.782;9.932;2023-01-04T06:31:03;100490.44;;;4.97;100.00
10646;BME280;5371;49.782;9.932;2023-01-04T06:33:30;100490.50;;;4.94;100.00
10646;BME280;5371;49.782;9.932;2023-01-04T06:35:58;100492.16;;;4.98;100.00
10646;BME280;5371;49.782;9.932;2023-01-04T06:38:27;100491.94;;;5.07;100.00
10646;BME280;5371;49.782;9.932;2023-01-04T06:40:54;100496.97;;;5.13;100.00
10646;BME280;5371;49.782;9.932;2023-01-04T06:43:21;100485.78;;;5.11;100.00
10646;BME280;5371;49.782;9.932;2023-01-04T06:45:49;100501.38;;;5.09;100.00
10646;BME280;5371;49.782;9.932;2023-01-04T06:48:16;100502.03;;;5.19;100.00
10646;BME280;5371;49.782;9.932;2023-01-04T06:50:42;100493.34;;;5.20;100.00
10646;BME280;5371;49.782;9.932;2023-01-04T06:53:09;100503.00;;;5.13;100.00
10646;BME280;5371;49.782;9.932;2023-01-04T06:55:38;100504.63;;;5.19;100.00
10646;BME280;5371;49.782;9.932;2023-01-04T06:58:05;100497.78;;;5.15;100.00
10646;BME280;5371;49.782;9.932;2023-01-04T07:00:32;100490.72;;;5.21;100.00
10646;BME280;5371;49.782;9.932;2023-01-04T07:02:59;100496.06;;;5.14;100.00
10646;BME280;5371;49.782;9.932;2023-01-04T07:05:25;100492.41;;;5.22;100.00
10646;BME280;5371;49.782;9.932;2023-01-04T07:07:52;100484.66;;;5.21;100.00
10646;BME280;5371;49.782;9.932;2023-01-04T07:10:20;100481.28;;;5.19;100.00
10646;BME280;5371;49.782;9.932;2023-01-04T07:12:48;100474.06;;;5.30;100.00
10646;BME280;5371;49.782;9.932;2023-01-04T07:15:15;100475.75;;;5.33;100.00
10646;BME280;5371;49.782;9.932;2023-01-04T07:17:42;100469.47;;;5.41;100.00
10646;BME280;5371;49.782;9.932;2023-01-04T07:20:09;100462.72;;;5.36;100.00
10646;BME280;5371;49.782;9.932;2023-01-04T07:22:36;100462.66;;;5.37;100.00
10646;BME280;5371;49.782;9.932;2023-01-04T07:25:04;100460.56;;;5.19;100.00
10646;BME280;5371;49.782;9.932;2023-01-04T07:27:31;100456.06;;;5.25;100.00
10646;BME280;5371;49.782;9.932;2023-01-04T07:29:59;100453.44;;;5.27;100.00
10646;BME280;5371;49.782;9.932;2023-01-04T07:32:26;100447.50;;;5.22;100.00
10646;BME280;5371;49.782;9.932;2023-01-04T07:34:53;100441.00;;;5.06;100.00
10646;BME280;5371;49.782;9.932;2023-01-04T07:37:20;100450.84;;;5.27;100.00
10646;BME280;5371;49.782;9.932;2023-01-04T07:39:47;100444.03;;;5.23;100.00
10646;BME280;5371;49.782;9.932;2023-01-04T07:42:14;100438.50;;;5.37;100.00
10646;BME280;5371;49.782;9.932;2023-01-04T07:44:42;100426.25;;;5.42;100.00
10646;BME280;5371;49.782;9.932;2023-01-04T07:47:11;100411.88;;;5.30;100.00
10646;BME280;5371;49.782;9.932;2023-01-04T07:49:38;100411.19;;;5.23;100.00
10646;BME280;5371;49.782;9.932;2023-01-04T07:52:05;100398.81;;;5.35;100.00
10646;BME280;5371;49.782;9.932;2023-01-04T07:54:32;100405.16;;;5.23;100.00
10646;BME280;5371;49.782;9.932;2023-01-04T07:56:59;100395.19;;;5.40;100.00
10646;BME280;5371;49.782;9.932;2023-01-04T07:59:26;100381.41;;;5.38;100.00
10646;BME280;5371;49.782;9.932;2023-01-04T08:01:53;100385.56;;;5.45;100.00
10646;BME280;5371;49.782;9.932;2023-01-04T08:04:23;100376.13;;;5.43;100.00
10646;BME280;5371;49.782;9.932;2023-01-04T08:06:50;100378.56;;;5.47;100.00
10646;BME280;5371;49.782;9.932;2023-01-04T08:09:18;100390.66;;;5.48;100.00
10646;BME280;5371;49.782;9.932;2023-01-04T08:11:45;100382.78;;;5.51;100.00
10646;BME280;5371;49.782;9.932;2023-01-04T08:14:12;100386.00;;;5.61;100.00
10646;BME280;5371;49.782;9.932;2023-01-04T08:16:41;100393.19;;;5.50;100.00
10646;BME280;5371;49.782;9.932;2023-01-04T08:19:13;100393.63;;;5.65;100.00
10646;BME280;5371;49.782;9.932;2023-01-04T08:21:41;100392.03;;;5.61;100.00
10646;BME280;5371;49.782;9.932;2023-01-04T08:24:10;100387.47;;;5.70;100.00
10646;BME280;5371;49.782;9.932;2023-01-04T08:26:37;100398.44;;;5.79;100.00
10646;BME280;5371;49.782;9.932;2023-01-04T08:29:05;100403.69;;;5.78;100.00
10646;BME280;5371;49.782;9.932;2023-01-04T08:31:32;100413.75;;;5.90;100.00
10646;BME280;5371;49.782;9.932;2023-01-04T08:34:02;100400.59;;;5.96;100.00
10646;BME280;5371;49.782;9.932;2023-01-04T08:36:30;100408.16;;;6.04;100.00
10646;BME280;5371;49.782;9.932;2023-01-04T08:39:00;100391.31;;;6.18;100.00
10646;BME280;5371;49.782;9.932;2023-01-04T08:41:28;100385.34;;;6.15;100.00
10646;BME280;5371;49.782;9.932;2023-01-04T08:43:55;100388.66;;;6.20;100.00
10646;BME280;5371;49.782;9.932;2023-01-04T08:46:22;100371.13;;;6.28;100.00
10646;BME280;5371;49.782;9.932;2023-01-04T08:48:50;100371.78;;;6.34;100.00
10646;BME280;5371;49.782;9.932;2023-01-04T08:51:17;100377.78;;;6.36;100.00
10646;BME280;5371;49.782;9.932;2023-01-04T08:53:44;100369.50;;;6.24;100.00
10646;BME280;5371;49.782;9.932;2023-01-04T08:56:12;100375.22;;;6.35;100.00
10646;BME280;5371;49.782;9.932;2023-01-04T08:58:39;100377.00;;;6.33;100.00
10646;BME280;5371;49.782;9.932;2023-01-04T09:01:08;100386.25;;;6.42;100.00
10646;BME280;5371;49.782;9.932;2023-01-04T09:03:36;100390.47;;;6.46;100.00
10646;BME280;5371;49.782;9.932;2023-01-04T09:06:04;100399.28;;;6.40;100.00
10646;BME280;5371;49.782;9.932;2023-01-04T09:08:32;100407.53;;;6.54;100.00
10646;BME280;5371;49.782;9.932;2023-01-04T09:11:02;100403.47;;;6.46;100.00
10646;BME280;5371;49.782;9.932;2023-01-04T09:13:31;100408.53;;;6.49;100.00
10646;BME280;5371;49.782;9.932;2023-01-04T09:15:59;100407.13;;;6.66;100.00
10646;BME280;5371;49.782;9.932;2023-01-04T09:18:26;100406.38;;;6.63;100.00
10646;BME280;5371;49.782;9.932;2023-01-04T09:20:53;100397.59;;;6.67;100.00
10646;BME280;5371;49.782;9.932;2023-01-04T09:23:21;100402.78;;;6.67;100.00
10646;BME280;5371;49.782;9.932;2023-01-04T09:25:47;100399.91;;;6.48;100.00
10646;BME280;5371;49.782;9.932;2023-01-04T09:28:14;100398.47;;;6.66;100.00
10646;BME280;5371;49.782;9.932;2023-01-04T09:30:43;100408.00;;;6.65;100.00
10646;BME280;5371;49.782;9.932;2023-01-04T09:33:10;100412.16;;;6.72;100.00
10646;BME280;5371;49.782;9.932;2023-01-04T09:35:36;100393.13;;;6.72;100.00
10646;BME280;5371;49.782;9.932;2023-01-04T09:38:03;100392.81;;;6.81;100.00
10646;BME280;5371;49.782;9.932;2023-01-04T09:40:33;100391.16;;;6.79;100.00
10646;BME280;5371;49.782;9.932;2023-01-04T09:43:03;100384.47;;;6.71;100.00
10646;BME280;5371;49.782;9.932;2023-01-04T09:45:30;100386.72;;;6.82;100.00
10646;BME280;5371;49.782;9.932;2023-01-04T09:48:03;100379.16;;;6.74;100.00
10646;BME280;5371;49.782;9.932;2023-01-04T09:50:35;100381.31;;;6.88;100.00
10646;BME280;5371;49.782;9.932;2023-01-04T09:53:08;100374.13;;;6.96;100.00
10646;BME280;5371;49.782;9.932;2023-01-04T09:55:39;100374.41;;;6.87;100.00
10646;BME280;5371;49.782;9.932;2023-01-04T09:58:17;100368.78;;;7.01;100.00
10646;BME280;5371;49.782;9.932;2023-01-04T10:00:49;100377.41;;;7.01;100.00
10646;BME280;5371;49.782;9.932;2023-01-04T10:03:22;100374.63;;;7.07;100.00
10646;BME280;5371;49.782;9.932;2023-01-04T10:05:51;100372.75;;;7.11;100.00
10646;BME280;5371;49.782;9.932;2023-01-04T10:08:19;100374.50;;;7.10;100.00
10646;BME280;5371;49.782;9.932;2023-01-04T10:10:51;100369.38;;;7.09;100.00
10646;BME280;5371;49.782;9.932;2023-01-04T10:13:42;100366.81;;;7.07;100.00
10646;BME280;5371;49.782;9.932;2023-01-04T10:16:19;100361.16;;;6.95;100.00
10646;BME280;5371;49.782;9.932;2023-01-04T10:19:00;100345.97;;;7.09;100.00
10646;BME280;5371;49.782;9.932;2023-01-04T10:21:36;100341.56;;;7.11;100.00
10646;BME280;5371;49.782;9.932;2023-01-04T10:24:17;100342.47;;;7.10;100.00
10646;BME280;5371;49.782;9.932;2023-01-04T10:26:50;100343.25;;;7.12;100.00
10646;BME280;5371;49.782;9.932;2023-01-04T10:29:47;100339.44;;;7.22;100.00
10646;BME280;5371;49.782;9.932;2023-01-04T10:32:28;100328.84;;;7.28;100.00
10646;BME280;5371;49.782;9.932;2023-01-04T10:34:59;100331.00;;;7.40;100.00
10646;BME280;5371;49.782;9.932;2023-01-04T10:37:31;100332.00;;;7.11;100.00
10646;BME280;5371;49.782;9.932;2023-01-04T10:40:00;100314.28;;;7.23;100.00
10646;BME280;5371;49.782;9.932;2023-01-04T10:42:31;100301.25;;;7.24;100.00
10646;BME280;5371;49.782;9.932;2023-01-04T10:45:07;100298.75;;;7.21;100.00
10646;BME280;5371;49.782;9.932;2023-01-04T10:47:46;100285.41;;;7.30;100.00
10646;BME280;5371;49.782;9.932;2023-01-04T10:50:24;100266.94;;;7.38;100.00
10646;BME280;5371;49.782;9.932;2023-01-04T10:52:57;100270.88;;;7.48;100.00
10646;BME280;5371;49.782;9.932;2023-01-04T10:55:32;100264.63;;;7.54;100.00
10646;BME280;5371;49.782;9.932;2023-01-04T10:58:08;100265.50;;;7.76;100.00
10646;BME280;5371;49.782;9.932;2023-01-04T11:00:41;100268.84;;;7.56;100.00
10646;BME280;5371;49.782;9.932;2023-01-04T11:03:16;100274.75;;;7.61;100.00
10646;BME280;5371;49.782;9.932;2023-01-04T11:05:49;100279.63;;;7.70;100.00
10646;BME280;5371;49.782;9.932;2023-01-04T11:08:19;100278.13;;;7.86;100.00
10646;BME280;5371;49.782;9.932;2023-01-04T11:10:51;100278.56;;;7.74;100.00
10646;BME280;5371;49.782;9.932;2023-01-04T11:13:21;100274.41;;;7.92;100.00
10646;BME280;5371;49.782;9.932;2023-01-04T11:15:49;100271.91;;;7.91;100.00
10646;BME280;5371;49.782;9.932;2023-01-04T11:18:18;100277.66;;;7.99;100.00
10646;BME280;5371;49.782;9.932;2023-01-04T11:20:47;100271.75;;;7.94;100.00
10646;BME280;5371;49.782;9.932;2023-01-04T11:23:15;100251.97;;;7.89;100.00
10646;BME280;5371;49.782;9.932;2023-01-04T11:25:46;100249.72;;;8.02;100.00
10646;BME280;5371;49.782;9.932;2023-01-04T11:28:17;100240.47;;;7.95;100.00
10646;BME280;5371;49.782;9.932;2023-01-04T11:30:50;100245.56;;;8.20;100.00
10646;BME280;5371;49.782;9.932;2023-01-04T11:33:20;100243.81;;;7.99;100.00
10646;BME280;5371;49.782;9.932;2023-01-04T11:35:50;100245.03;;;7.90;100.00
10646;BME280;5371;49.782;9.932;2023-01-04T11:38:18;100248.81;;;8.03;100.00
10646;BME280;5371;49.782;9.932;2023-01-04T11:41:00;100243.97;;;7.94;100.00
10646;BME280;5371;49.782;9.932;2023-01-04T11:43:28;100242.72;;;7.82;100.00
10646;BME280;5371;49.782;9.932;2023-01-04T11:46:00;100245.19;;;7.85;100.00
10646;BME280;5371;49.782;9.932;2023-01-04T11:48:33;100247.31;;;7.98;100.00
10646;BME280;5371;49.782;9.932;2023-01-04T11:51:03;100245.88;;;7.91;100.00
10646;BME280;5371;49.782;9.932;2023-01-04T11:53:32;100248.09;;;7.78;100.00
10646;BME280;5371;49.782;9.932;2023-01-04T11:56:17;100250.41;;;7.85;100.00
10646;BME280;5371;49.782;9.932;2023-01-04T11:59:04;100246.38;;;7.77;100.00
10646;BME280;5371;49.782;9.932;2023-01-04T12:01:34;100236.13;;;7.74;100.00
10646;BME280;5371;49.782;9.932;2023-01-04T12:04:01;100222.31;;;7.72;100.00
10646;BME280;5371;49.782;9.932;2023-01-04T12:06:35;100223.16;;;7.72;100.00
10646;BME280;5371;49.782;9.932;2023-01-04T12:09:03;100216.00;;;7.77;100.00
10646;BME280;5371;49.782;9.932;2023-01-04T12:11:33;100216.22;;;7.73;100.00
10646;BME280;5371;49.782;9.932;2023-01-04T12:14:03;100206.22;;;7.62;100.00
10646;BME280;5371;49.782;9.932;2023-01-04T12:16:45;100202.84;;;7.82;100.00
10646;BME280;5371;49.782;9.932;2023-01-04T12:19:15;100190.34;;;7.68;100.00
10646;BME280;5371;49.782;9.932;2023-01-04T12:21:47;100203.75;;;7.81;100.00
10646;BME280;5371;49.782;9.932;2023-01-04T12:24:17;100179.09;;;7.89;100.00
10646;BME280;5371;49.782;9.932;2023-01-04T12:26:45;100202.16;;;7.77;100.00
10646;BME280;5371;49.782;9.932;2023-01-04T12:29:43;100190.13;;;7.96;100.00
10646;BME280;5371;49.782;9.932;2023-01-04T12:32:36;100187.50;;;7.96;100.00
10646;BME280;5371;49.782;9.932;2023-01-04T12:38:10;100187.63;;;7.93;100.00
10646;BME280;5371;49.782;9.932;2023-01-04T12:40:54;100180.72;;;7.92;100.00
10646;BME280;5371;49.782;9.932;2023-01-04T12:43:25;100180.72;;;7.92;100.00
10646;BME280;5371;49.782;9.932;2023-01-04T12:49:58;100174.44;;;7.98;100.00
10646;BME280;5371;49.782;9.932;2023-01-04T12:52:38;100172.38;;;8.06;100.00
10646;BME280;5371;49.782;9.932;2023-01-04T12:58:02;100148.28;;;8.01;100.00
10646;BME280;5371;49.782;9.932;2023-01-04T13:03:34;100147.91;;;8.10;100.00
10646;BME280;5371;49.782;9.932;2023-01-04T13:06:03;100130.84;;;8.03;100.00
10646;BME280;5371;49.782;9.932;2023-01-04T13:08:38;100122.25;;;8.01;100.00
10646;BME280;5371;49.782;9.932;2023-01-04T13:11:17;100117.69;;;8.06;100.00
10646;BME280;5371;49.782;9.932;2023-01-04T13:13:54;100121.03;;;8.09;100.00
10646;BME280;5371;49.782;9.932;2023-01-04T13:16:29;100126.09;;;8.12;100.00
10646;BME280;5371;49.782;9.932;2023-01-04T13:18:59;100123.56;;;8.11;100.00
10646;BME280;5371;49.782;9.932;2023-01-04T13:21:30;100118.91;;;8.19;100.00
10646;BME280;5371;49.782;9.932;2023-01-04T13:23:59;100117.91;;;8.21;100.00
10646;BME280;5371;49.782;9.932;2023-01-04T13:26:37;100136.63;;;8.31;100.00
10646;BME280;5371;49.782;9.932;2023-01-04T13:29:09;100114.44;;;8.21;100.00
10646;BME280;5371;49.782;9.932;2023-01-04T13:31:43;100122.41;;;8.38;100.00
10646;BME280;5371;49.782;9.932;2023-01-04T13:34:17;100116.63;;;8.32;100.00
10646;BME280;5371;49.782;9.932;2023-01-04T13:36:52;100116.06;;;8.45;100.00
10646;BME280;5371;49.782;9.932;2023-01-04T13:39:20;100113.91;;;8.55;100.00
10646;BME280;5371;49.782;9.932;2023-01-04T13:41:48;100110.34;;;8.56;100.00